createdAt,value
2019-04-29T00:00:57.364Z,10.2
2019-04-29T00:01:57.522Z,10.2
2019-04-29T00:02:57.458Z,10.2
2019-04-29T00:03:57.615Z,10.2
2019-04-29T00:04:57.533Z,10.2
2019-04-29T00:05:57.638Z,10.2
2019-04-29T00:06:57.659Z,10.2
2019-04-29T00:07:57.718Z,10.2
2019-04-29T00:08:57.809Z,10.1
2019-04-29T00:09:57.854Z,10.1
2019-04-29T00:10:57.971Z,10.1
2019-04-29T00:11:57.994Z,10.1
2019-04-29T00:12:57.974Z,10.1
2019-04-29T00:13:58.025Z,10.1
2019-04-29T00:14:58.133Z,10.1
2019-04-29T00:15:58.204Z,10.1
2019-04-29T00:16:58.181Z,10.1
2019-04-29T00:17:58.306Z,10.1
2019-04-29T00:18:58.259Z,10.1
2019-04-29T00:19:58.313Z,10.1
2019-04-29T00:20:58.420Z,10.1
2019-04-29T00:21:58.425Z,10.1
2019-04-29T00:22:58.511Z,10.1
2019-04-29T00:24:03.750Z,10
2019-04-29T00:24:58.753Z,10
2019-04-29T00:25:58.719Z,10
2019-04-29T00:26:58.744Z,10
2019-04-29T00:27:58.879Z,10
2019-04-29T00:28:58.868Z,10
2019-04-29T00:29:59.087Z,10
2019-04-29T00:30:59.226Z,10
2019-04-29T00:31:58.973Z,10
2019-04-29T00:32:59.344Z,10
2019-04-29T00:33:59.092Z,10
2019-04-29T00:34:59.151Z,10
2019-04-29T00:35:59.408Z,10
2019-04-29T00:36:59.401Z,9.9
2019-04-29T00:37:59.299Z,9.9
2019-04-29T00:38:59.405Z,10
2019-04-29T00:39:59.441Z,10
2019-04-29T00:40:59.519Z,10
2019-04-29T00:41:59.547Z,9.9
2019-04-29T00:42:59.620Z,9.9
2019-04-29T00:43:59.671Z,9.9
2019-04-29T00:44:59.763Z,9.9
2019-04-29T00:45:59.786Z,9.9
2019-04-29T00:46:59.866Z,9.9
2019-04-29T00:47:59.988Z,9.9
2019-04-29T00:48:59.980Z,9.9
2019-04-29T00:50:00.073Z,9.9
2019-04-29T00:51:00.044Z,9.9
2019-04-29T00:52:00.078Z,9.9
2019-04-29T00:53:00.633Z,9.9
2019-04-29T00:54:00.572Z,9.9
2019-04-29T00:55:00.608Z,9.9
2019-04-29T00:56:00.542Z,9.9
2019-04-29T00:57:00.494Z,9.9
2019-04-29T00:58:00.555Z,9.9
2019-04-29T00:59:00.518Z,9.9
2019-04-29T01:00:00.534Z,9.9
2019-04-29T01:01:00.629Z,9.9
2019-04-29T01:02:00.613Z,9.9
2019-04-29T01:03:00.738Z,9.9
2019-04-29T01:04:00.729Z,9.8
2019-04-29T01:05:00.773Z,9.8
2019-04-29T01:06:00.874Z,9.8
2019-04-29T01:07:00.877Z,9.8
2019-04-29T01:08:00.954Z,9.8
2019-04-29T01:09:01.013Z,9.8
2019-04-29T01:10:01.173Z,9.8
2019-04-29T01:11:02.072Z,9.8
2019-04-29T01:12:01.147Z,9.8
2019-04-29T01:13:01.194Z,9.8
2019-04-29T01:14:01.245Z,9.8
2019-04-29T01:15:01.258Z,9.8
2019-04-29T01:16:01.333Z,9.8
2019-04-29T01:17:01.388Z,9.7
2019-04-29T01:18:01.467Z,9.7
2019-04-29T01:19:03.812Z,9.7
2019-04-29T01:20:01.568Z,9.7
2019-04-29T01:21:01.716Z,9.7
2019-04-29T01:22:01.667Z,9.7
2019-04-29T01:23:01.744Z,9.7
2019-04-29T01:24:01.855Z,9.7
2019-04-29T01:25:01.891Z,9.7
2019-04-29T01:26:01.950Z,9.6
2019-04-29T01:27:01.941Z,9.6
2019-04-29T01:28:02.032Z,9.6
2019-04-29T01:29:02.117Z,9.6
2019-04-29T01:30:02.138Z,9.6
2019-04-29T01:31:02.301Z,9.6
2019-04-29T01:32:02.245Z,9.6
2019-04-29T01:33:02.316Z,9.6
2019-04-29T01:34:02.433Z,9.6
2019-04-29T01:35:02.444Z,9.6
2019-04-29T01:36:02.542Z,9.6
2019-04-29T01:37:02.569Z,9.6
2019-04-29T01:38:02.679Z,9.5
2019-04-29T01:39:02.659Z,9.5
2019-04-29T01:40:02.727Z,9.5
2019-04-29T01:41:02.774Z,9.5
2019-04-29T01:42:02.845Z,9.5
2019-04-29T01:43:02.886Z,9.4
2019-04-29T01:44:02.955Z,9.4
2019-04-29T01:45:02.992Z,9.4
2019-04-29T01:46:03.022Z,9.4
2019-04-29T01:47:03.159Z,9.4
2019-04-29T01:48:03.195Z,9.4
2019-04-29T01:49:03.325Z,9.4
2019-04-29T01:50:03.272Z,9.4
2019-04-29T01:51:03.318Z,9.4
2019-04-29T01:52:03.388Z,9.4
2019-04-29T01:53:03.422Z,9.4
2019-04-29T01:54:51.712Z,9.4
2019-04-29T01:55:03.575Z,9.4
2019-04-29T01:56:04.323Z,9.4
2019-04-29T01:57:03.666Z,9.4
2019-04-29T01:58:03.734Z,9.4
2019-04-29T01:59:03.773Z,9.4
2019-04-29T02:00:03.772Z,9.3
2019-04-29T02:01:04.003Z,9.3
2019-04-29T02:02:03.953Z,9.3
2019-04-29T02:03:03.967Z,9.3
2019-04-29T02:04:04.074Z,9.3
2019-04-29T02:05:04.053Z,9.3
2019-04-29T02:06:04.261Z,9.3
2019-04-29T02:07:04.184Z,9.3
2019-04-29T02:08:04.225Z,9.3
2019-04-29T02:09:04.300Z,9.3
2019-04-29T02:12:04.510Z,9.3
2019-04-29T02:13:04.532Z,9.3
2019-04-29T02:14:04.569Z,9.3
2019-04-29T02:15:04.608Z,9.3
2019-04-29T02:16:04.673Z,9.3
2019-04-29T02:17:04.700Z,9.3
2019-04-29T02:18:04.757Z,9.2
2019-04-29T02:19:04.805Z,9.3
2019-04-29T02:20:04.858Z,9.2
2019-04-29T02:21:04.947Z,9.2
2019-04-29T02:22:05.013Z,9.2
2019-04-29T02:23:05.053Z,9.2
2019-04-29T02:24:05.111Z,9.1
2019-04-29T02:25:05.174Z,9.2
2019-04-29T02:26:05.253Z,9.2
2019-04-29T02:27:05.757Z,9.1
2019-04-29T02:28:05.312Z,9.1
2019-04-29T02:29:05.387Z,9.1
2019-04-29T02:30:05.424Z,9.1
2019-04-29T02:31:05.455Z,9.1
2019-04-29T02:32:05.576Z,9.1
2019-04-29T02:33:05.592Z,9.1
2019-04-29T02:34:05.641Z,9.1
2019-04-29T02:35:05.759Z,9.1
2019-04-29T02:36:05.799Z,9
2019-04-29T02:37:05.827Z,9
2019-04-29T02:38:05.932Z,9
2019-04-29T02:39:05.952Z,9
2019-04-29T02:40:06.054Z,9
2019-04-29T02:41:06.110Z,9
2019-04-29T02:42:06.128Z,9
2019-04-29T02:43:06.169Z,9
2019-04-29T02:44:10.276Z,9
2019-04-29T02:45:06.345Z,9
2019-04-29T02:46:06.400Z,9
2019-04-29T02:47:06.381Z,8.9
2019-04-29T02:48:06.449Z,8.9
2019-04-29T02:49:06.522Z,8.9
2019-04-29T02:50:06.533Z,8.9
2019-04-29T02:51:06.676Z,8.9
2019-04-29T02:52:06.705Z,8.9
2019-04-29T02:53:06.687Z,8.9
2019-04-29T02:54:06.791Z,8.9
2019-04-29T02:55:06.866Z,8.9
2019-04-29T02:56:06.835Z,8.8
2019-04-29T02:57:06.966Z,8.9
2019-04-29T02:58:06.964Z,8.9
2019-04-29T02:59:07.008Z,8.9
2019-04-29T03:00:07.050Z,8.8
2019-04-29T03:01:07.167Z,8.8
2019-04-29T03:02:07.152Z,8.8
2019-04-29T03:03:07.209Z,8.8
2019-04-29T03:04:07.247Z,8.8
2019-04-29T03:05:07.341Z,8.8
2019-04-29T03:06:07.423Z,8.8
2019-04-29T03:07:07.432Z,8.8
2019-04-29T03:08:07.517Z,8.8
2019-04-29T03:09:07.558Z,8.8
2019-04-29T03:10:07.623Z,8.8
2019-04-29T03:11:07.674Z,8.8
2019-04-29T03:12:07.736Z,8.8
2019-04-29T03:13:07.830Z,8.7
2019-04-29T03:14:08.765Z,8.7
2019-04-29T03:15:07.904Z,8.7
2019-04-29T03:16:07.958Z,8.7
2019-04-29T03:17:08.001Z,8.7
2019-04-29T03:18:08.109Z,8.7
2019-04-29T03:19:08.188Z,8.7
2019-04-29T03:20:08.246Z,8.6
2019-04-29T03:21:08.248Z,8.6
2019-04-29T03:22:08.285Z,8.6
2019-04-29T03:23:08.331Z,8.6
2019-04-29T03:24:08.364Z,8.6
2019-04-29T03:25:08.431Z,8.6
2019-04-29T03:26:08.461Z,8.6
2019-04-29T03:27:08.505Z,8.6
2019-04-29T03:28:08.565Z,8.6
2019-04-29T03:29:25.939Z,8.5
2019-04-29T03:30:08.667Z,8.5
2019-04-29T03:31:08.735Z,8.5
2019-04-29T03:32:08.774Z,8.5
2019-04-29T03:33:08.921Z,8.5
2019-04-29T03:34:08.921Z,8.5
2019-04-29T03:35:08.972Z,8.5
2019-04-29T03:36:09.026Z,8.5
2019-04-29T03:37:09.135Z,8.5
2019-04-29T03:38:09.182Z,8.4
2019-04-29T03:39:09.324Z,8.4
2019-04-29T03:40:09.365Z,8.5
2019-04-29T03:41:09.303Z,8.5
2019-04-29T03:42:09.380Z,8.4
2019-04-29T03:43:09.453Z,8.4
2019-04-29T03:44:09.500Z,8.4
2019-04-29T03:45:09.594Z,8.4
2019-04-29T03:46:09.625Z,8.4
2019-04-29T03:47:09.702Z,8.4
2019-04-29T03:48:09.754Z,8.4
2019-04-29T03:49:09.840Z,8.4
2019-04-29T03:50:10.118Z,8.4
2019-04-29T03:51:09.924Z,8.4
2019-04-29T03:52:09.943Z,8.4
2019-04-29T03:53:10.024Z,8.4
2019-04-29T03:54:10.158Z,8.4
2019-04-29T03:55:10.153Z,8.4
2019-04-29T03:56:10.179Z,8.4
2019-04-29T03:57:10.241Z,8.3
2019-04-29T03:58:10.330Z,8.3
2019-04-29T03:59:10.336Z,8.3
2019-04-29T04:00:10.372Z,8.3
2019-04-29T04:01:10.411Z,8.3
2019-04-29T04:02:10.468Z,8.3
2019-04-29T04:03:10.520Z,8.3
2019-04-29T04:04:10.560Z,8.3
2019-04-29T04:05:10.653Z,8.3
2019-04-29T04:06:10.713Z,8.3
2019-04-29T04:07:10.778Z,8.3
2019-04-29T04:08:10.790Z,8.3
2019-04-29T04:09:10.915Z,8.3
2019-04-29T04:10:10.930Z,8.3
2019-04-29T04:11:10.955Z,8.3
2019-04-29T04:12:11.012Z,8.3
2019-04-29T04:13:11.090Z,8.3
2019-04-29T04:14:11.206Z,8.3
2019-04-29T04:15:11.230Z,8.3
2019-04-29T04:16:11.305Z,8.2
2019-04-29T04:17:11.351Z,8.3
2019-04-29T04:18:11.451Z,8.3
2019-04-29T04:19:11.478Z,8.3
2019-04-29T04:20:11.548Z,8.3
2019-04-29T04:21:11.621Z,8.3
2019-04-29T04:22:11.677Z,8.3
2019-04-29T04:23:11.816Z,8.3
2019-04-29T04:24:11.824Z,8.3
2019-04-29T04:25:11.854Z,8.2
2019-04-29T04:26:12.078Z,8.2
2019-04-29T04:27:11.939Z,8.3
2019-04-29T04:28:12.010Z,8.3
2019-04-29T04:29:12.051Z,8.3
2019-04-29T04:30:12.093Z,8.3
2019-04-29T04:31:12.174Z,8.3
2019-04-29T04:32:13.744Z,8.3
2019-04-29T04:33:12.587Z,8.3
2019-04-29T04:34:14.074Z,8.3
2019-04-29T04:35:12.333Z,8.3
2019-04-29T04:36:12.498Z,8.3
2019-04-29T04:37:12.485Z,8.3
2019-04-29T04:38:12.515Z,8.3
2019-04-29T04:39:12.638Z,8.3
2019-04-29T04:40:13.779Z,8.3
2019-04-29T04:41:12.755Z,8.3
2019-04-29T04:42:12.757Z,8.3
2019-04-29T04:43:12.920Z,8.3
2019-04-29T04:44:13.505Z,8.3
2019-04-29T04:45:12.981Z,8.3
2019-04-29T04:46:13.053Z,8.3
2019-04-29T04:47:13.232Z,8.3
2019-04-29T04:48:13.128Z,8.3
2019-04-29T04:49:15.834Z,8.3
2019-04-29T04:50:13.264Z,8.3
2019-04-29T04:51:13.305Z,8.3
2019-04-29T04:52:13.385Z,8.3
2019-04-29T04:53:13.428Z,8.3
2019-04-29T04:54:13.456Z,8.3
2019-04-29T04:55:13.529Z,8.3
2019-04-29T04:56:14.238Z,8.3
2019-04-29T04:57:13.655Z,8.3
2019-04-29T04:58:13.644Z,8.3
2019-04-29T04:59:13.746Z,8.3
2019-04-29T05:00:13.781Z,8.3
2019-04-29T05:01:13.850Z,8.3
2019-04-29T05:02:13.960Z,8.3
2019-04-29T05:03:13.975Z,8.3
2019-04-29T05:04:14.543Z,8.3
2019-04-29T05:05:14.114Z,8.3
2019-04-29T05:06:14.145Z,8.4
2019-04-29T05:07:14.234Z,8.4
2019-04-29T05:08:14.244Z,8.4
2019-04-29T05:09:14.305Z,8.3
2019-04-29T05:10:14.627Z,8.3
2019-04-29T05:11:14.438Z,8.4
2019-04-29T05:12:14.883Z,8.4
2019-04-29T05:13:27.224Z,8.4
2019-04-29T05:14:14.604Z,8.4
2019-04-29T05:15:14.647Z,8.4
2019-04-29T05:16:18.214Z,8.4
2019-04-29T05:17:19.764Z,8.4
2019-04-29T05:18:14.829Z,8.4
2019-04-29T05:19:14.880Z,8.5
2019-04-29T05:20:14.976Z,8.5
2019-04-29T05:21:14.950Z,8.4
2019-04-29T05:22:15.034Z,8.4
2019-04-29T05:23:15.113Z,8.4
2019-04-29T05:24:15.145Z,8.4
2019-04-29T05:25:15.415Z,8.4
2019-04-29T05:26:15.464Z,8.4
2019-04-29T05:27:15.302Z,8.4
2019-04-29T05:28:15.476Z,8.5
2019-04-29T05:29:15.371Z,8.5
2019-04-29T05:30:15.455Z,8.5
2019-04-29T05:31:15.515Z,8.5
2019-04-29T05:32:15.647Z,8.6
2019-04-29T05:33:15.704Z,8.6
2019-04-29T05:34:15.711Z,8.6
2019-04-29T05:35:15.787Z,8.6
2019-04-29T05:36:15.919Z,8.6
2019-04-29T05:37:15.939Z,8.6
2019-04-29T05:38:16.189Z,8.7
2019-04-29T05:39:15.995Z,8.6
2019-04-29T05:40:16.806Z,8.6
2019-04-29T05:41:16.145Z,8.6
2019-04-29T05:42:17.299Z,8.6
2019-04-29T05:43:16.181Z,8.7
2019-04-29T05:44:19.010Z,8.7
2019-04-29T05:45:16.301Z,8.7
2019-04-29T05:46:21.434Z,8.7
2019-04-29T05:47:17.912Z,8.7
2019-04-29T05:48:18.761Z,8.6
2019-04-29T05:49:16.530Z,8.6
2019-04-29T05:50:19.209Z,8.6
2019-04-29T05:51:16.607Z,8.7
2019-04-29T05:52:16.875Z,8.7
2019-04-29T05:53:17.917Z,8.7
2019-04-29T05:54:17.427Z,8.7
2019-04-29T05:55:17.013Z,8.7
2019-04-29T05:56:17.663Z,8.7
2019-04-29T05:57:20.294Z,8.7
2019-04-29T05:58:19.642Z,8.7
2019-04-29T05:59:17.049Z,8.7
2019-04-29T06:00:18.690Z,8.7
2019-04-29T06:01:18.184Z,8.7
2019-04-29T06:02:18.492Z,8.7
2019-04-29T06:03:18.391Z,8.7
2019-04-29T06:04:18.221Z,8.7
2019-04-29T06:05:18.704Z,8.7
2019-04-29T06:06:19.152Z,8.7
2019-04-29T06:07:21.488Z,8.8
2019-04-29T06:08:17.661Z,8.8
2019-04-29T06:09:18.364Z,8.8
2019-04-29T06:10:22.824Z,8.8
2019-04-29T06:11:19.571Z,8.8
2019-04-29T06:12:19.360Z,8.8
2019-04-29T06:13:19.862Z,8.8
2019-04-29T06:14:21.838Z,8.8
2019-04-29T06:15:20.330Z,8.8
2019-04-29T06:16:20.826Z,8.8
2019-04-29T06:17:19.814Z,8.8
2019-04-29T06:18:21.982Z,8.9
2019-04-29T06:19:20.796Z,8.9
2019-04-29T06:20:22.705Z,8.9
2019-04-29T06:21:21.007Z,8.9
2019-04-29T06:22:18.297Z,8.9
2019-04-29T06:23:23.084Z,8.9
2019-04-29T06:24:18.405Z,8.9
2019-04-29T06:25:18.783Z,8.9
2019-04-29T06:26:18.692Z,8.9
2019-04-29T06:27:18.671Z,8.9
2019-04-29T06:28:21.535Z,9
2019-04-29T06:29:22.200Z,9
2019-04-29T06:30:18.878Z,9
2019-04-29T06:31:18.975Z,9
2019-04-29T06:32:20.135Z,9
2019-04-29T06:33:19.041Z,9
2019-04-29T06:34:18.917Z,9
2019-04-29T06:35:18.997Z,9
2019-04-29T06:36:19.028Z,9.1
2019-04-29T06:37:19.102Z,9.1
2019-04-29T06:38:19.188Z,9.1
2019-04-29T06:39:19.231Z,9.1
2019-04-29T06:40:19.276Z,9.1
2019-04-29T06:41:19.350Z,9.1
2019-04-29T06:42:20.398Z,9.1
2019-04-29T06:43:19.474Z,9.1
2019-04-29T06:44:19.497Z,9.1
2019-04-29T06:45:19.538Z,9.1
2019-04-29T06:46:19.590Z,9.1
2019-04-29T06:47:19.659Z,9.2
2019-04-29T06:48:19.745Z,9.2
2019-04-29T06:49:19.779Z,9.2
2019-04-29T06:50:19.841Z,9.2
2019-04-29T06:51:19.880Z,9.2
2019-04-29T06:52:19.901Z,9.2
2019-04-29T06:53:21.202Z,9.3
2019-04-29T06:54:20.175Z,9.3
2019-04-29T06:55:20.177Z,9.3
2019-04-29T06:56:20.547Z,9.3
2019-04-29T06:57:20.251Z,9.4
2019-04-29T06:58:20.316Z,9.5
2019-04-29T06:59:20.425Z,9.5
2019-04-29T07:00:22.108Z,9.6
2019-04-29T07:01:20.427Z,9.6
2019-04-29T07:02:20.467Z,9.7
2019-04-29T07:03:20.825Z,9.7
2019-04-29T07:04:20.585Z,9.8
2019-04-29T07:05:20.643Z,9.8
2019-04-29T07:06:20.727Z,9.8
2019-04-29T07:07:20.774Z,9.8
2019-04-29T07:08:20.886Z,9.9
2019-04-29T07:09:20.889Z,9.9
2019-04-29T07:10:23.130Z,10
2019-04-29T07:11:21.072Z,10
2019-04-29T07:12:21.047Z,10.1
2019-04-29T07:13:22.679Z,10.1
2019-04-29T07:14:21.116Z,10.1
2019-04-29T07:15:21.167Z,10.2
2019-04-29T07:16:21.724Z,10.2
2019-04-29T07:17:21.236Z,10.3
2019-04-29T07:18:21.339Z,10.3
2019-04-29T07:19:22.103Z,10.3
2019-04-29T07:20:21.402Z,10.4
2019-04-29T07:21:21.462Z,10.4
2019-04-29T07:22:25.664Z,10.4
2019-04-29T07:23:21.581Z,10.4
2019-04-29T07:24:21.640Z,10.5
2019-04-29T07:25:24.539Z,10.5
2019-04-29T07:26:21.752Z,10.5
2019-04-29T07:27:21.803Z,10.6
2019-04-29T07:28:21.877Z,10.6
2019-04-29T07:29:29.373Z,10.6
2019-04-29T07:30:21.983Z,10.6
2019-04-29T07:31:22.057Z,10.6
2019-04-29T07:32:22.078Z,10.6
2019-04-29T07:33:23.981Z,10.6
2019-04-29T07:34:22.185Z,10.6
2019-04-29T07:35:22.243Z,10.6
2019-04-29T07:36:22.721Z,10.6
2019-04-29T07:37:22.331Z,10.6
2019-04-29T07:38:22.424Z,10.7
2019-04-29T07:39:22.457Z,10.7
2019-04-29T07:40:22.527Z,10.7
2019-04-29T07:41:22.575Z,10.8
2019-04-29T07:42:24.534Z,10.8
2019-04-29T07:43:22.666Z,10.8
2019-04-29T07:44:22.711Z,10.9
2019-04-29T07:45:23.657Z,10.9
2019-04-29T07:46:22.804Z,10.9
2019-04-29T07:47:24.811Z,10.9
2019-04-29T07:48:22.954Z,10.9
2019-04-29T07:49:23.032Z,10.9
2019-04-29T07:50:26.593Z,10.9
2019-04-29T07:51:23.089Z,10.9
2019-04-29T07:52:23.191Z,10.9
2019-04-29T07:53:34.303Z,11
2019-04-29T07:54:23.340Z,11
2019-04-29T07:55:25.872Z,11
2019-04-29T07:56:23.439Z,11
2019-04-29T07:57:23.504Z,11
2019-04-29T07:58:27.222Z,11.1
2019-04-29T07:59:23.673Z,11.1
2019-04-29T08:00:23.647Z,11
2019-04-29T08:01:24.962Z,11
2019-04-29T08:02:23.774Z,11
2019-04-29T08:03:23.874Z,11
2019-04-29T08:04:23.953Z,11
2019-04-29T08:05:23.953Z,11.1
2019-04-29T08:06:23.987Z,11.1
2019-04-29T08:07:24.044Z,11.1
2019-04-29T08:08:24.118Z,11.1
2019-04-29T08:09:24.154Z,11.2
2019-04-29T08:10:28.509Z,11.2
2019-04-29T08:11:24.275Z,11.2
2019-04-29T08:12:24.428Z,11.2
2019-04-29T08:13:24.523Z,11.2
2019-04-29T08:14:24.469Z,11.2
2019-04-29T08:15:24.482Z,11.2
2019-04-29T08:16:24.603Z,11.2
2019-04-29T08:17:24.667Z,11.2
2019-04-29T08:18:24.640Z,11.2
2019-04-29T08:19:29.154Z,11.2
2019-04-29T08:20:24.868Z,11.2
2019-04-29T08:21:24.846Z,11.2
2019-04-29T08:22:27.595Z,11.2
2019-04-29T08:23:24.970Z,11.3
2019-04-29T08:24:25.040Z,11.3
2019-04-29T08:25:25.947Z,11.3
2019-04-29T08:26:25.175Z,11.2
2019-04-29T08:27:38.867Z,11.2
2019-04-29T08:28:25.359Z,11.2
2019-04-29T08:29:25.400Z,11.2
2019-04-29T08:30:25.380Z,11.2
2019-04-29T08:31:25.459Z,11.2
2019-04-29T08:32:25.507Z,11.3
2019-04-29T08:33:25.570Z,11.3
2019-04-29T08:34:25.661Z,11.4
2019-04-29T08:35:25.677Z,11.4
2019-04-29T08:37:28.950Z,11.4
2019-04-29T08:38:25.937Z,11.3
2019-04-29T08:39:29.262Z,11.3
2019-04-29T08:40:25.970Z,11.4
2019-04-29T08:41:29.559Z,11.4
2019-04-29T08:42:26.071Z,11.4
2019-04-29T08:43:26.147Z,11.4
2019-04-29T08:44:26.209Z,11.5
2019-04-29T08:45:26.268Z,11.5
2019-04-29T08:46:26.288Z,11.6
2019-04-29T08:47:30.383Z,11.6
2019-04-29T08:48:26.385Z,11.6
2019-04-29T08:49:39.744Z,11.7
2019-04-29T08:50:26.534Z,11.7
2019-04-29T08:51:26.557Z,11.7
2019-04-29T08:52:26.619Z,11.7
2019-04-29T08:53:26.662Z,11.8
2019-04-29T08:54:26.687Z,11.8
2019-04-29T08:55:30.868Z,11.8
2019-04-29T08:56:26.852Z,11.8
2019-04-29T08:57:26.876Z,11.8
2019-04-29T08:58:26.961Z,11.8
2019-04-29T08:59:27.012Z,11.9
2019-04-29T09:00:27.101Z,11.9
2019-04-29T09:01:36.103Z,11.9
2019-04-29T09:02:34.742Z,12
2019-04-29T09:03:39.533Z,12.1
2019-04-29T09:04:28.413Z,12.1
2019-04-29T09:05:27.326Z,12.2
2019-04-29T09:06:27.677Z,12.2
2019-04-29T09:07:27.403Z,12.2
2019-04-29T09:08:28.730Z,12.3
2019-04-29T09:09:29.405Z,12.3
2019-04-29T09:10:27.623Z,12.4
2019-04-29T09:11:27.580Z,12.4
2019-04-29T09:12:29.273Z,12.5
2019-04-29T09:13:27.709Z,12.5
2019-04-29T09:14:27.814Z,12.5
2019-04-29T09:15:27.885Z,12.6
2019-04-29T09:16:27.902Z,12.6
2019-04-29T09:17:27.916Z,12.6
2019-04-29T09:18:28.005Z,12.6
2019-04-29T09:19:28.071Z,12.7
2019-04-29T09:20:28.119Z,12.7
2019-04-29T09:21:28.172Z,12.8
2019-04-29T09:22:28.197Z,12.8
2019-04-29T09:23:28.268Z,13
2019-04-29T09:24:28.417Z,13.1
2019-04-29T09:25:28.357Z,13.2
2019-04-29T09:26:28.519Z,13.2
2019-04-29T09:27:28.488Z,13.2
2019-04-29T09:28:29.846Z,13.3
2019-04-29T09:29:28.553Z,13.4
2019-04-29T09:30:28.583Z,13.5
2019-04-29T09:31:28.631Z,13.5
2019-04-29T09:32:28.707Z,13.6
2019-04-29T09:33:28.775Z,13.6
2019-04-29T09:34:28.825Z,13.7
2019-04-29T09:35:29.023Z,13.6
2019-04-29T09:36:29.134Z,13.7
2019-04-29T09:37:28.949Z,13.7
2019-04-29T09:38:32.436Z,13.8
2019-04-29T09:39:41.866Z,13.8
2019-04-29T09:40:29.130Z,13.8
2019-04-29T09:41:30.447Z,13.9
2019-04-29T09:42:30.955Z,14
2019-04-29T09:43:29.248Z,14
2019-04-29T09:44:29.296Z,14.1
2019-04-29T09:45:29.340Z,14.2
2019-04-29T09:46:29.844Z,14.2
2019-04-29T09:47:29.487Z,14.3
2019-04-29T09:48:29.526Z,14.3
2019-04-29T09:49:29.591Z,14.4
2019-04-29T09:50:29.627Z,14.4
2019-04-29T09:51:30.093Z,14.5
2019-04-29T09:52:29.812Z,14.6
2019-04-29T09:53:29.806Z,14.6
2019-04-29T09:54:29.858Z,14.8
2019-04-29T09:55:29.915Z,14.8
2019-04-29T09:56:29.995Z,14.9
2019-04-29T09:57:30.011Z,14.9
2019-04-29T09:58:30.032Z,14.9
2019-04-29T09:59:30.114Z,15
2019-04-29T10:00:30.189Z,15.1
2019-04-29T10:01:30.235Z,15.3
2019-04-29T10:02:31.513Z,15.4
2019-04-29T10:03:30.312Z,15.5
2019-04-29T10:04:30.386Z,15.5
2019-04-29T10:05:30.454Z,15.5
2019-04-29T10:06:30.495Z,15.5
2019-04-29T10:07:30.545Z,15.5
2019-04-29T10:08:30.615Z,15.7
2019-04-29T10:09:30.703Z,15.8
2019-04-29T10:10:30.745Z,15.9
2019-04-29T10:11:30.917Z,16
2019-04-29T10:12:30.886Z,16.1
2019-04-29T10:13:30.903Z,16.2
2019-04-29T10:14:35.431Z,16.1
2019-04-29T10:15:31.020Z,16.1
2019-04-29T10:16:35.862Z,16.1
2019-04-29T10:17:31.169Z,16.2
2019-04-29T10:18:34.318Z,16.3
2019-04-29T10:19:31.247Z,16.4
2019-04-29T10:20:31.297Z,16.5
2019-04-29T10:21:31.314Z,16.6
2019-04-29T10:22:31.417Z,16.6
2019-04-29T10:23:31.501Z,16.6
2019-04-29T10:24:31.574Z,16.6
2019-04-29T10:25:32.648Z,16.7
2019-04-29T10:26:31.671Z,16.9
2019-04-29T10:27:31.708Z,16.9
2019-04-29T10:28:31.821Z,17
2019-04-29T10:29:32.337Z,17
2019-04-29T10:30:32.470Z,17
2019-04-29T10:31:33.351Z,17
2019-04-29T10:32:32.039Z,17
2019-04-29T10:33:32.098Z,17.1
2019-04-29T10:34:33.046Z,17.1
2019-04-29T10:35:32.253Z,17
2019-04-29T10:36:32.245Z,17.1
2019-04-29T10:37:32.694Z,17.1
2019-04-29T10:38:32.350Z,17.2
2019-04-29T10:39:32.415Z,17.2
2019-04-29T10:40:32.540Z,17.2
2019-04-29T10:41:35.925Z,17.2
2019-04-29T10:42:32.579Z,17.3
2019-04-29T10:43:35.492Z,17.4
2019-04-29T10:44:32.675Z,17.4
2019-04-29T10:45:32.740Z,17.4
2019-04-29T10:46:32.824Z,17.5
2019-04-29T10:47:32.836Z,17.6
2019-04-29T10:48:32.872Z,17.7
2019-04-29T10:49:34.696Z,17.7
2019-04-29T10:50:33.008Z,17.7
2019-04-29T10:51:33.057Z,17.6
2019-04-29T10:52:34.386Z,17.7
2019-04-29T10:53:33.162Z,17.7
2019-04-29T10:54:33.294Z,17.8
2019-04-29T10:55:33.252Z,17.8
2019-04-29T10:56:35.255Z,17.8
2019-04-29T10:57:33.334Z,17.8
2019-04-29T10:58:35.527Z,17.7
2019-04-29T10:59:35.785Z,17.8
2019-04-29T11:00:33.473Z,17.9
2019-04-29T11:01:33.529Z,17.9
2019-04-29T11:02:33.590Z,18
2019-04-29T11:03:33.679Z,18.1
2019-04-29T11:04:36.062Z,18.2
2019-04-29T11:05:33.775Z,18.2
2019-04-29T11:06:35.684Z,18.2
2019-04-29T11:07:33.875Z,18
2019-04-29T11:08:38.080Z,18
2019-04-29T11:09:33.987Z,18.1
2019-04-29T11:10:34.121Z,18.1
2019-04-29T11:11:34.178Z,18.2
2019-04-29T11:12:34.222Z,18.3
2019-04-29T11:13:34.282Z,18.2
2019-04-29T11:14:37.572Z,18.3
2019-04-29T11:15:34.394Z,18.3
2019-04-29T11:16:45.886Z,18.3
2019-04-29T11:17:35.099Z,18.3
2019-04-29T11:18:34.535Z,18.3
2019-04-29T11:19:34.988Z,18.4
2019-04-29T11:20:34.888Z,18.5
2019-04-29T11:21:34.928Z,18.6
2019-04-29T11:22:38.255Z,18.7
2019-04-29T11:23:34.855Z,18.7
2019-04-29T11:24:35.003Z,18.5
2019-04-29T11:25:35.038Z,18.7
2019-04-29T11:26:35.088Z,18.8
2019-04-29T11:27:35.139Z,18.9
2019-04-29T11:28:35.170Z,19
2019-04-29T11:29:35.832Z,19
2019-04-29T11:30:39.324Z,18.9
2019-04-29T11:31:35.354Z,19
2019-04-29T11:32:35.369Z,19
2019-04-29T11:33:39.562Z,19.1
2019-04-29T11:34:35.449Z,19
2019-04-29T11:35:35.800Z,18.9
2019-04-29T11:36:38.915Z,18.8
2019-04-29T11:37:35.619Z,18.8
2019-04-29T11:38:38.267Z,18.9
2019-04-29T11:39:35.806Z,19.1
2019-04-29T11:40:43.376Z,19
2019-04-29T11:41:35.883Z,19
2019-04-29T11:42:36.834Z,19.1
2019-04-29T11:43:35.896Z,19.1
2019-04-29T11:44:35.963Z,19
2019-04-29T11:45:38.432Z,19.1
2019-04-29T11:46:36.104Z,19.1
2019-04-29T11:47:36.115Z,19.2
2019-04-29T11:48:36.133Z,19.3
2019-04-29T11:49:36.209Z,19.3
2019-04-29T11:50:36.254Z,19.2
2019-04-29T11:51:44.343Z,19.1
2019-04-29T11:52:36.350Z,19.2
2019-04-29T11:53:36.401Z,19.2
2019-04-29T11:54:36.490Z,19.3
2019-04-29T11:55:36.551Z,19.2
2019-04-29T11:56:39.399Z,19
2019-04-29T11:57:40.843Z,19.1
2019-04-29T11:58:36.711Z,19.1
2019-04-29T11:59:36.750Z,19.2
2019-04-29T12:00:36.836Z,19.4
2019-04-29T12:01:38.685Z,19.2
2019-04-29T12:02:45.127Z,19.1
2019-04-29T12:03:37.460Z,19
2019-04-29T12:04:37.103Z,18.9
2019-04-29T12:05:40.047Z,19
2019-04-29T12:06:37.168Z,19.1
2019-04-29T12:07:37.261Z,19.2
2019-04-29T12:08:37.313Z,19.1
2019-04-29T12:09:37.364Z,18.9
2019-04-29T12:10:37.822Z,19
2019-04-29T12:11:37.516Z,19.1
2019-04-29T12:12:37.522Z,19.1
2019-04-29T12:13:37.557Z,19.2
2019-04-29T12:14:37.896Z,19.3
2019-04-29T12:15:37.620Z,19.3
2019-04-29T12:16:37.661Z,19.2
2019-04-29T12:17:37.729Z,19.2
2019-04-29T12:18:39.571Z,19.2
2019-04-29T12:19:37.855Z,19.1
2019-04-29T12:20:37.905Z,19
2019-04-29T12:21:37.951Z,18.9
2019-04-29T12:22:47.988Z,18.9
2019-04-29T12:23:38.044Z,18.9
2019-04-29T12:24:38.099Z,18.9
2019-04-29T12:25:38.263Z,18.9
2019-04-29T12:26:42.803Z,18.9
2019-04-29T12:27:38.281Z,18.8
2019-04-29T12:28:42.642Z,18.8
2019-04-29T12:29:38.510Z,18.9
2019-04-29T12:30:38.486Z,19.1
2019-04-29T12:31:38.549Z,19.1
2019-04-29T12:32:38.655Z,19.3
2019-04-29T12:33:38.625Z,19.2
2019-04-29T12:34:38.699Z,19.1
2019-04-29T12:35:50.983Z,19.3
2019-04-29T12:36:54.573Z,19.3
2019-04-29T12:37:38.955Z,19.2
2019-04-29T12:38:44.586Z,19.1
2019-04-29T12:39:43.218Z,19
2019-04-29T12:40:39.023Z,19.1
2019-04-29T12:41:48.433Z,19.2
2019-04-29T12:42:40.119Z,19.2
2019-04-29T12:43:39.173Z,19.2
2019-04-29T12:44:39.868Z,19
2019-04-29T12:45:39.412Z,19.1
2019-04-29T12:46:39.350Z,19.3
2019-04-29T12:47:39.402Z,19.3
2019-04-29T12:48:39.429Z,19.3
2019-04-29T12:49:42.342Z,19.5
2019-04-29T12:50:39.525Z,19.6
2019-04-29T12:51:39.678Z,19.5
2019-04-29T12:52:40.161Z,19.3
2019-04-29T12:53:40.765Z,19.5
2019-04-29T12:54:41.901Z,19.5
2019-04-29T12:55:44.843Z,19.5
2019-04-29T12:56:42.976Z,19.5
2019-04-29T12:57:39.984Z,19.4
2019-04-29T12:58:40.035Z,19.4
2019-04-29T12:59:40.138Z,19.4
2019-04-29T13:00:47.139Z,19.4
2019-04-29T13:01:51.168Z,19.3
2019-04-29T13:02:40.234Z,19.3
2019-04-29T13:03:41.702Z,19.3
2019-04-29T13:04:40.368Z,19.2
2019-04-29T13:05:40.435Z,19.2
2019-04-29T13:06:40.494Z,19.1
2019-04-29T13:07:42.988Z,19
2019-04-29T13:08:40.610Z,19
2019-04-29T13:09:40.658Z,19
2019-04-29T13:10:42.311Z,19
2019-04-29T13:11:48.130Z,18.9
2019-04-29T13:12:44.390Z,18.8
2019-04-29T13:13:40.885Z,18.9
2019-04-29T13:14:40.966Z,18.9
2019-04-29T13:15:43.783Z,18.9
2019-04-29T13:16:41.158Z,18.9
2019-04-29T13:17:41.174Z,19.1
2019-04-29T13:18:41.229Z,19
2019-04-29T13:19:41.256Z,18.8
2019-04-29T13:20:45.199Z,18.8
2019-04-29T13:21:41.415Z,18.8
2019-04-29T13:22:41.447Z,18.8
2019-04-29T13:23:55.419Z,18.8
2019-04-29T13:24:42.565Z,18.8
2019-04-29T13:25:41.619Z,18.7
2019-04-29T13:26:42.857Z,18.7
2019-04-29T13:27:41.723Z,18.8
2019-04-29T13:28:58.843Z,18.8
2019-04-29T13:29:42.876Z,18.7
2019-04-29T13:30:45.408Z,18.6
2019-04-29T13:31:42.054Z,18.7
2019-04-29T13:32:41.998Z,18.7
2019-04-29T13:33:45.903Z,18.6
2019-04-29T13:34:42.100Z,18.7
2019-04-29T13:35:48.307Z,18.6
2019-04-29T13:36:42.194Z,18.6
2019-04-29T13:37:42.231Z,18.6
2019-04-29T13:38:42.321Z,18.6
2019-04-29T13:39:42.383Z,18.5
2019-04-29T13:40:42.438Z,18.5